sensor_id;sensor_type;location;lat;lon;timestamp;P1;durP1;ratioP1;P2;durP2;ratioP2
7845;SDS011;3968;51.424;6.788;2023-05-02T00:01:15;26.83;;;22.87;;
7845;SDS011;3968;51.424;6.788;2023-05-02T00:03:41;24.90;;;21.87;;
7845;SDS011;3968;51.424;6.788;2023-05-02T00:06:07;29.77;;;24.63;;
7845;SDS011;3968;51.424;6.788;2023-05-02T00:08:33;29.50;;;23.43;;
7845;SDS011;3968;51.424;6.788;2023-05-02T00:10:59;30.60;;;24.90;;
7845;SDS011;3968;51.424;6.788;2023-05-02T00:13:25;30.90;;;25.67;;
7845;SDS011;3968;51.424;6.788;2023-05-02T00:15:51;30.63;;;25.90;;
7845;SDS011;3968;51.424;6.788;2023-05-02T00:18:17;35.13;;;26.70;;
7845;SDS011;3968;51.424;6.788;2023-05-02T00:20:43;33.40;;;26.33;;
7845;SDS011;3968;51.424;6.788;2023-05-02T00:23:09;38.53;;;28.57;;
7845;SDS011;3968;51.424;6.788;2023-05-02T00:25:42;31.60;;;26.80;;
7845;SDS011;3968;51.424;6.788;2023-05-02T00:28:08;33.37;;;27.37;;
7845;SDS011;3968;51.424;6.788;2023-05-02T00:30:34;33.30;;;28.03;;
7845;SDS011;3968;51.424;6.788;2023-05-02T00:33:00;32.80;;;27.33;;
7845;SDS011;3968;51.424;6.788;2023-05-02T00:35:26;35.30;;;28.87;;
7845;SDS011;3968;51.424;6.788;2023-05-02T00:37:52;35.33;;;27.90;;
7845;SDS011;3968;51.424;6.788;2023-05-02T00:40:18;33.90;;;28.53;;
7845;SDS011;3968;51.424;6.788;2023-05-02T00:42:45;36.80;;;29.93;;
7845;SDS011;3968;51.424;6.788;2023-05-02T00:45:11;34.27;;;28.43;;
7845;SDS011;3968;51.424;6.788;2023-05-02T00:47:37;36.53;;;29.50;;
7845;SDS011;3968;51.424;6.788;2023-05-02T00:50:03;38.10;;;30.17;;
7845;SDS011;3968;51.424;6.788;2023-05-02T00:52:29;39.30;;;30.23;;
7845;SDS011;3968;51.424;6.788;2023-05-02T00:54:55;37.53;;;29.43;;
7845;SDS011;3968;51.424;6.788;2023-05-02T00:57:22;38.10;;;30.53;;
7845;SDS011;3968;51.424;6.788;2023-05-02T00:59:49;36.70;;;29.60;;
7845;SDS011;3968;51.424;6.788;2023-05-02T01:02:29;38.63;;;31.10;;
7845;SDS011;3968;51.424;6.788;2023-05-02T01:07:30;36.43;;;30.03;;
7845;SDS011;3968;51.424;6.788;2023-05-02T01:12:44;39.70;;;30.63;;
7845;SDS011;3968;51.424;6.788;2023-05-02T01:15:14;40.30;;;31.67;;
7845;SDS011;3968;51.424;6.788;2023-05-02T01:17:41;42.37;;;33.33;;
7845;SDS011;3968;51.424;6.788;2023-05-02T01:20:10;45.17;;;33.23;;
7845;SDS011;3968;51.424;6.788;2023-05-02T01:22:38;41.70;;;32.83;;
7845;SDS011;3968;51.424;6.788;2023-05-02T01:25:13;43.97;;;34.73;;
7845;SDS011;3968;51.424;6.788;2023-05-02T01:27:56;40.80;;;32.40;;
7845;SDS011;3968;51.424;6.788;2023-05-02T01:30:23;42.63;;;31.73;;
7845;SDS011;3968;51.424;6.788;2023-05-02T01:32:51;41.80;;;30.63;;
7845;SDS011;3968;51.424;6.788;2023-05-02T01:35:19;43.53;;;32.53;;
7845;SDS011;3968;51.424;6.788;2023-05-02T01:37:46;40.47;;;30.87;;
7845;SDS011;3968;51.424;6.788;2023-05-02T01:40:13;38.30;;;30.10;;
7845;SDS011;3968;51.424;6.788;2023-05-02T01:42:40;39.80;;;30.60;;
7845;SDS011;3968;51.424;6.788;2023-05-02T01:45:07;37.27;;;28.33;;
7845;SDS011;3968;51.424;6.788;2023-05-02T01:47:35;37.23;;;27.93;;
7845;SDS011;3968;51.424;6.788;2023-05-02T01:50:02;42.47;;;28.93;;
7845;SDS011;3968;51.424;6.788;2023-05-02T01:52:28;41.93;;;30.00;;
7845;SDS011;3968;51.424;6.788;2023-05-02T01:54:54;41.07;;;28.67;;
7845;SDS011;3968;51.424;6.788;2023-05-02T01:57:22;40.07;;;28.67;;
7845;SDS011;3968;51.424;6.788;2023-05-02T01:59:48;35.67;;;25.70;;
7845;SDS011;3968;51.424;6.788;2023-05-02T02:02:15;33.13;;;24.90;;
7845;SDS011;3968;51.424;6.788;2023-05-02T02:04:41;41.17;;;28.43;;
7845;SDS011;3968;51.424;6.788;2023-05-02T02:07:10;35.37;;;25.93;;
7845;SDS011;3968;51.424;6.788;2023-05-02T02:09:37;36.27;;;25.87;;
7845;SDS011;3968;51.424;6.788;2023-05-02T02:20:12;42.83;;;26.63;;
7845;SDS011;3968;51.424;6.788;2023-05-02T02:22:40;33.60;;;25.73;;
7845;SDS011;3968;51.424;6.788;2023-05-02T02:25:10;39.00;;;24.37;;
7845;SDS011;3968;51.424;6.788;2023-05-02T02:27:37;32.93;;;23.63;;
7845;SDS011;3968;51.424;6.788;2023-05-02T02:30:03;29.93;;;21.97;;
7845;SDS011;3968;51.424;6.788;2023-05-02T02:32:29;30.73;;;21.93;;
7845;SDS011;3968;51.424;6.788;2023-05-02T02:34:55;29.33;;;20.57;;
7845;SDS011;3968;51.424;6.788;2023-05-02T02:37:29;31.13;;;21.87;;
7845;SDS011;3968;51.424;6.788;2023-05-02T02:40:18;33.57;;;21.10;;
7845;SDS011;3968;51.424;6.788;2023-05-02T02:48:06;33.33;;;21.60;;
7845;SDS011;3968;51.424;6.788;2023-05-02T02:50:50;31.17;;;20.93;;
7845;SDS011;3968;51.424;6.788;2023-05-02T02:53:24;25.47;;;19.33;;
7845;SDS011;3968;51.424;6.788;2023-05-02T02:55:56;27.27;;;19.43;;
7845;SDS011;3968;51.424;6.788;2023-05-02T03:01:02;29.50;;;20.27;;
7845;SDS011;3968;51.424;6.788;2023-05-02T03:03:28;28.20;;;19.73;;
7845;SDS011;3968;51.424;6.788;2023-05-02T03:05:55;28.57;;;19.80;;
7845;SDS011;3968;51.424;6.788;2023-05-02T03:08:21;26.13;;;19.30;;
7845;SDS011;3968;51.424;6.788;2023-05-02T03:10:47;25.80;;;17.03;;
7845;SDS011;3968;51.424;6.788;2023-05-02T03:13:13;27.80;;;19.03;;
7845;SDS011;3968;51.424;6.788;2023-05-02T03:18:08;21.73;;;17.40;;
7845;SDS011;3968;51.424;6.788;2023-05-02T03:20:34;27.30;;;17.13;;
7845;SDS011;3968;51.424;6.788;2023-05-02T03:23:00;21.00;;;15.57;;
7845;SDS011;3968;51.424;6.788;2023-05-02T03:25:26;23.90;;;16.73;;
7845;SDS011;3968;51.424;6.788;2023-05-02T03:27:53;23.13;;;17.20;;
7845;SDS011;3968;51.424;6.788;2023-05-02T03:30:21;21.43;;;15.50;;
7845;SDS011;3968;51.424;6.788;2023-05-02T03:32:47;21.93;;;15.90;;
7845;SDS011;3968;51.424;6.788;2023-05-02T03:35:14;20.73;;;15.07;;
7845;SDS011;3968;51.424;6.788;2023-05-02T03:37:40;22.13;;;14.67;;
7845;SDS011;3968;51.424;6.788;2023-05-02T03:40:06;23.47;;;14.83;;
7845;SDS011;3968;51.424;6.788;2023-05-02T03:42:35;24.77;;;16.07;;
7845;SDS011;3968;51.424;6.788;2023-05-02T03:45:04;24.73;;;14.77;;
7845;SDS011;3968;51.424;6.788;2023-05-02T03:47:30;22.00;;;14.90;;
7845;SDS011;3968;51.424;6.788;2023-05-02T03:49:56;21.93;;;14.90;;
7845;SDS011;3968;51.424;6.788;2023-05-02T03:52:23;22.40;;;14.73;;
7845;SDS011;3968;51.424;6.788;2023-05-02T03:54:49;19.43;;;13.80;;
7845;SDS011;3968;51.424;6.788;2023-05-02T03:57:15;19.17;;;13.83;;
7845;SDS011;3968;51.424;6.788;2023-05-02T03:59:42;17.93;;;12.53;;
7845;SDS011;3968;51.424;6.788;2023-05-02T04:02:10;18.77;;;12.83;;
7845;SDS011;3968;51.424;6.788;2023-05-02T04:04:36;17.90;;;12.67;;
7845;SDS011;3968;51.424;6.788;2023-05-02T04:07:02;15.17;;;11.63;;
7845;SDS011;3968;51.424;6.788;2023-05-02T04:09:29;16.63;;;11.73;;
7845;SDS011;3968;51.424;6.788;2023-05-02T04:11:55;18.27;;;12.37;;
7845;SDS011;3968;51.424;6.788;2023-05-02T04:14:21;17.60;;;11.83;;
7845;SDS011;3968;51.424;6.788;2023-05-02T04:16:47;16.67;;;12.13;;
7845;SDS011;3968;51.424;6.788;2023-05-02T04:19:14;15.73;;;10.83;;
7845;SDS011;3968;51.424;6.788;2023-05-02T04:21:40;15.77;;;11.43;;
7845;SDS011;3968;51.424;6.788;2023-05-02T04:24:06;16.67;;;12.03;;
7845;SDS011;3968;51.424;6.788;2023-05-02T04:26:32;18.13;;;11.47;;
7845;SDS011;3968;51.424;6.788;2023-05-02T04:28:58;20.10;;;11.83;;
7845;SDS011;3968;51.424;6.788;2023-05-02T04:31:25;16.23;;;12.87;;
7845;SDS011;3968;51.424;6.788;2023-05-02T04:33:51;18.00;;;11.40;;
7845;SDS011;3968;51.424;6.788;2023-05-02T04:36:17;21.60;;;13.10;;
7845;SDS011;3968;51.424;6.788;2023-05-02T04:38:43;13.90;;;11.10;;
7845;SDS011;3968;51.424;6.788;2023-05-02T04:41:10;18.27;;;12.77;;
7845;SDS011;3968;51.424;6.788;2023-05-02T04:43:36;16.93;;;13.03;;
7845;SDS011;3968;51.424;6.788;2023-05-02T04:46:02;18.87;;;13.60;;
7845;SDS011;3968;51.424;6.788;2023-05-02T04:48:28;15.77;;;12.20;;
7845;SDS011;3968;51.424;6.788;2023-05-02T04:50:54;20.50;;;14.27;;
7845;SDS011;3968;51.424;6.788;2023-05-02T04:53:20;18.80;;;14.20;;
7845;SDS011;3968;51.424;6.788;2023-05-02T04:55:47;20.63;;;14.93;;
7845;SDS011;3968;51.424;6.788;2023-05-02T04:58:13;21.43;;;15.07;;
7845;SDS011;3968;51.424;6.788;2023-05-02T05:00:39;21.93;;;15.63;;
7845;SDS011;3968;51.424;6.788;2023-05-02T05:03:05;20.20;;;14.40;;
7845;SDS011;3968;51.424;6.788;2023-05-02T05:05:32;21.40;;;15.53;;
7845;SDS011;3968;51.424;6.788;2023-05-02T05:07:58;22.60;;;16.20;;
7845;SDS011;3968;51.424;6.788;2023-05-02T05:10:24;23.27;;;15.53;;
7845;SDS011;3968;51.424;6.788;2023-05-02T05:12:50;22.43;;;14.40;;
7845;SDS011;3968;51.424;6.788;2023-05-02T05:15:17;18.40;;;12.63;;
7845;SDS011;3968;51.424;6.788;2023-05-02T05:17:46;16.63;;;11.20;;
7845;SDS011;3968;51.424;6.788;2023-05-02T05:20:12;16.87;;;10.10;;
7845;SDS011;3968;51.424;6.788;2023-05-02T05:22:39;13.60;;;9.20;;
7845;SDS011;3968;51.424;6.788;2023-05-02T05:25:08;15.97;;;8.97;;
7845;SDS011;3968;51.424;6.788;2023-05-02T05:27:34;11.53;;;8.47;;
7845;SDS011;3968;51.424;6.788;2023-05-02T05:30:01;12.50;;;9.20;;
7845;SDS011;3968;51.424;6.788;2023-05-02T05:32:27;18.50;;;10.97;;
7845;SDS011;3968;51.424;6.788;2023-05-02T05:34:54;18.57;;;10.70;;
7845;SDS011;3968;51.424;6.788;2023-05-02T05:37:20;18.83;;;9.80;;
7845;SDS011;3968;51.424;6.788;2023-05-02T05:39:46;15.43;;;9.20;;
7845;SDS011;3968;51.424;6.788;2023-05-02T05:42:12;14.73;;;8.17;;
7845;SDS011;3968;51.424;6.788;2023-05-02T05:44:38;13.40;;;7.07;;
7845;SDS011;3968;51.424;6.788;2023-05-02T05:47:04;11.60;;;6.50;;
7845;SDS011;3968;51.424;6.788;2023-05-02T05:49:30;13.47;;;5.27;;
7845;SDS011;3968;51.424;6.788;2023-05-02T05:51:57;9.20;;;4.80;;
7845;SDS011;3968;51.424;6.788;2023-05-02T05:54:23;7.60;;;4.53;;
7845;SDS011;3968;51.424;6.788;2023-05-02T05:56:49;7.83;;;4.83;;
7845;SDS011;3968;51.424;6.788;2023-05-02T05:59:15;9.73;;;5.13;;
7845;SDS011;3968;51.424;6.788;2023-05-02T06:01:41;9.33;;;4.33;;
7845;SDS011;3968;51.424;6.788;2023-05-02T06:04:07;7.80;;;4.30;;
7845;SDS011;3968;51.424;6.788;2023-05-02T06:06:33;8.27;;;4.10;;
7845;SDS011;3968;51.424;6.788;2023-05-02T06:08:59;7.40;;;3.93;;
7845;SDS011;3968;51.424;6.788;2023-05-02T06:11:25;8.30;;;3.93;;
7845;SDS011;3968;51.424;6.788;2023-05-02T06:13:52;7.50;;;3.73;;
7845;SDS011;3968;51.424;6.788;2023-05-02T06:16:18;7.17;;;4.00;;
7845;SDS011;3968;51.424;6.788;2023-05-02T06:18:44;11.27;;;3.90;;
7845;SDS011;3968;51.424;6.788;2023-05-02T06:21:10;8.27;;;3.37;;
7845;SDS011;3968;51.424;6.788;2023-05-02T06:23:36;5.73;;;3.80;;
7845;SDS011;3968;51.424;6.788;2023-05-02T06:26:03;7.23;;;3.50;;
7845;SDS011;3968;51.424;6.788;2023-05-02T06:28:29;7.40;;;4.20;;
7845;SDS011;3968;51.424;6.788;2023-05-02T06:30:56;10.63;;;4.40;;
7845;SDS011;3968;51.424;6.788;2023-05-02T06:33:22;9.53;;;5.23;;
7845;SDS011;3968;51.424;6.788;2023-05-02T06:35:51;8.17;;;4.33;;
7845;SDS011;3968;51.424;6.788;2023-05-02T06:38:18;9.57;;;4.87;;
7845;SDS011;3968;51.424;6.788;2023-05-02T06:40:44;9.87;;;4.87;;
7845;SDS011;3968;51.424;6.788;2023-05-02T06:43:10;6.40;;;4.10;;
7845;SDS011;3968;51.424;6.788;2023-05-02T06:45:36;10.10;;;4.43;;
7845;SDS011;3968;51.424;6.788;2023-05-02T06:48:02;11.27;;;4.67;;
7845;SDS011;3968;51.424;6.788;2023-05-02T06:50:28;10.57;;;4.60;;
7845;SDS011;3968;51.424;6.788;2023-05-02T06:52:54;7.40;;;3.50;;
7845;SDS011;3968;51.424;6.788;2023-05-02T06:55:21;8.37;;;4.10;;
7845;SDS011;3968;51.424;6.788;2023-05-02T06:57:50;9.13;;;4.37;;
7845;SDS011;3968;51.424;6.788;2023-05-02T07:00:16;8.90;;;4.87;;
7845;SDS011;3968;51.424;6.788;2023-05-02T07:02:43;9.93;;;4.73;;
7845;SDS011;3968;51.424;6.788;2023-05-02T07:05:09;9.07;;;4.03;;
7845;SDS011;3968;51.424;6.788;2023-05-02T07:07:35;7.37;;;2.83;;
7845;SDS011;3968;51.424;6.788;2023-05-02T07:10:02;6.60;;;2.70;;
7845;SDS011;3968;51.424;6.788;2023-05-02T07:12:28;9.57;;;3.30;;
7845;SDS011;3968;51.424;6.788;2023-05-02T07:14:54;9.30;;;2.97;;
7845;SDS011;3968;51.424;6.788;2023-05-02T07:17:20;5.90;;;2.60;;
7845;SDS011;3968;51.424;6.788;2023-05-02T07:19:46;4.77;;;2.30;;
7845;SDS011;3968;51.424;6.788;2023-05-02T07:22:12;8.43;;;2.60;;
7845;SDS011;3968;51.424;6.788;2023-05-02T07:24:41;5.83;;;2.90;;
7845;SDS011;3968;51.424;6.788;2023-05-02T07:27:07;5.00;;;2.20;;
7845;SDS011;3968;51.424;6.788;2023-05-02T07:29:34;8.07;;;2.60;;
7845;SDS011;3968;51.424;6.788;2023-05-02T07:32:00;8.43;;;2.53;;
7845;SDS011;3968;51.424;6.788;2023-05-02T07:34:26;6.27;;;2.80;;
7845;SDS011;3968;51.424;6.788;2023-05-02T07:36:52;88.67;;;55.73;;
7845;SDS011;3968;51.424;6.788;2023-05-02T07:39:18;77.40;;;46.10;;
7845;SDS011;3968;51.424;6.788;2023-05-02T07:41:44;90.13;;;53.63;;
7845;SDS011;3968;51.424;6.788;2023-05-02T07:44:10;23.37;;;13.03;;
7845;SDS011;3968;51.424;6.788;2023-05-02T07:46:36;18.23;;;8.47;;
7845;SDS011;3968;51.424;6.788;2023-05-02T07:49:02;12.53;;;5.90;;
7845;SDS011;3968;51.424;6.788;2023-05-02T07:51:28;9.40;;;2.70;;
7845;SDS011;3968;51.424;6.788;2023-05-02T07:53:54;8.80;;;2.80;;
7845;SDS011;3968;51.424;6.788;2023-05-02T07:56:23;4.93;;;2.60;;
7845;SDS011;3968;51.424;6.788;2023-05-02T07:58:49;8.00;;;2.80;;
7845;SDS011;3968;51.424;6.788;2023-05-02T08:01:19;5.77;;;2.73;;
7845;SDS011;3968;51.424;6.788;2023-05-02T08:03:45;6.63;;;2.93;;
7845;SDS011;3968;51.424;6.788;2023-05-02T08:06:12;6.80;;;2.70;;
7845;SDS011;3968;51.424;6.788;2023-05-02T08:08:38;6.07;;;3.00;;
7845;SDS011;3968;51.424;6.788;2023-05-02T08:11:04;6.63;;;2.87;;
7845;SDS011;3968;51.424;6.788;2023-05-02T08:13:30;5.27;;;2.50;;
7845;SDS011;3968;51.424;6.788;2023-05-02T08:15:56;4.97;;;2.50;;
7845;SDS011;3968;51.424;6.788;2023-05-02T08:18:23;6.80;;;2.57;;
7845;SDS011;3968;51.424;6.788;2023-05-02T08:20:49;5.33;;;2.73;;
7845;SDS011;3968;51.424;6.788;2023-05-02T08:23:15;5.40;;;3.13;;
7845;SDS011;3968;51.424;6.788;2023-05-02T08:25:41;8.53;;;2.83;;
7845;SDS011;3968;51.424;6.788;2023-05-02T08:28:07;7.60;;;2.50;;
7845;SDS011;3968;51.424;6.788;2023-05-02T08:30:33;6.17;;;1.90;;
7845;SDS011;3968;51.424;6.788;2023-05-02T08:32:59;7.10;;;2.37;;
7845;SDS011;3968;51.424;6.788;2023-05-02T08:35:27;5.83;;;2.20;;
7845;SDS011;3968;51.424;6.788;2023-05-02T08:37:54;5.13;;;1.93;;
7845;SDS011;3968;51.424;6.788;2023-05-02T08:40:20;3.77;;;2.03;;
7845;SDS011;3968;51.424;6.788;2023-05-02T08:42:46;7.20;;;2.23;;
7845;SDS011;3968;51.424;6.788;2023-05-02T08:45:12;7.43;;;2.20;;
7845;SDS011;3968;51.424;6.788;2023-05-02T08:47:39;4.43;;;2.00;;
7845;SDS011;3968;51.424;6.788;2023-05-02T08:50:06;10.47;;;2.63;;
7845;SDS011;3968;51.424;6.788;2023-05-02T08:52:32;6.70;;;2.77;;
7845;SDS011;3968;51.424;6.788;2023-05-02T08:54:59;8.53;;;2.93;;
7845;SDS011;3968;51.424;6.788;2023-05-02T08:57:29;7.97;;;2.80;;
7845;SDS011;3968;51.424;6.788;2023-05-02T08:59:55;6.23;;;2.50;;
7845;SDS011;3968;51.424;6.788;2023-05-02T09:04:53;6.33;;;2.77;;
7845;SDS011;3968;51.424;6.788;2023-05-02T09:07:20;7.87;;;3.23;;
7845;SDS011;3968;51.424;6.788;2023-05-02T09:09:46;5.83;;;2.57;;
7845;SDS011;3968;51.424;6.788;2023-05-02T09:12:12;7.70;;;3.13;;
7845;SDS011;3968;51.424;6.788;2023-05-02T09:14:38;11.20;;;2.83;;
7845;SDS011;3968;51.424;6.788;2023-05-02T09:17:04;7.63;;;3.00;;
7845;SDS011;3968;51.424;6.788;2023-05-02T09:19:30;8.37;;;2.80;;
7845;SDS011;3968;51.424;6.788;2023-05-02T09:21:59;7.13;;;2.90;;
7845;SDS011;3968;51.424;6.788;2023-05-02T09:24:25;5.93;;;2.73;;
7845;SDS011;3968;51.424;6.788;2023-05-02T09:26:56;5.43;;;2.80;;
7845;SDS011;3968;51.424;6.788;2023-05-02T09:29:22;9.07;;;3.20;;
7845;SDS011;3968;51.424;6.788;2023-05-02T09:31:48;7.97;;;2.73;;
7845;SDS011;3968;51.424;6.788;2023-05-02T09:34:15;5.70;;;2.53;;
7845;SDS011;3968;51.424;6.788;2023-05-02T09:36:42;9.53;;;3.07;;
7845;SDS011;3968;51.424;6.788;2023-05-02T09:39:09;7.97;;;3.20;;
7845;SDS011;3968;51.424;6.788;2023-05-02T09:41:40;7.73;;;3.77;;
7845;SDS011;3968;51.424;6.788;2023-05-02T09:44:12;5.67;;;3.07;;
7845;SDS011;3968;51.424;6.788;2023-05-02T09:46:39;8.33;;;2.80;;
7845;SDS011;3968;51.424;6.788;2023-05-02T09:49:06;5.73;;;2.87;;
7845;SDS011;3968;51.424;6.788;2023-05-02T09:51:33;7.03;;;3.00;;
7845;SDS011;3968;51.424;6.788;2023-05-02T09:53:59;5.73;;;3.13;;
7845;SDS011;3968;51.424;6.788;2023-05-02T09:56:25;5.80;;;2.87;;
7845;SDS011;3968;51.424;6.788;2023-05-02T09:59:03;7.77;;;3.00;;
7845;SDS011;3968;51.424;6.788;2023-05-02T10:01:37;6.07;;;3.13;;
7845;SDS011;3968;51.424;6.788;2023-05-02T10:04:03;7.93;;;2.90;;
7845;SDS011;3968;51.424;6.788;2023-05-02T10:06:29;6.93;;;3.07;;
7845;SDS011;3968;51.424;6.788;2023-05-02T10:08:57;10.63;;;3.07;;
7845;SDS011;3968;51.424;6.788;2023-05-02T10:11:23;7.93;;;3.70;;
7845;SDS011;3968;51.424;6.788;2023-05-02T10:13:49;6.80;;;2.97;;
7845;SDS011;3968;51.424;6.788;2023-05-02T10:16:18;10.67;;;3.60;;
7845;SDS011;3968;51.424;6.788;2023-05-02T10:19:06;7.07;;;3.10;;
7845;SDS011;3968;51.424;6.788;2023-05-02T10:21:33;10.07;;;4.00;;
7845;SDS011;3968;51.424;6.788;2023-05-02T10:24:01;8.40;;;3.70;;
7845;SDS011;3968;51.424;6.788;2023-05-02T10:26:28;10.77;;;3.80;;
7845;SDS011;3968;51.424;6.788;2023-05-02T10:28:57;7.67;;;2.90;;
7845;SDS011;3968;51.424;6.788;2023-05-02T10:31:24;8.40;;;3.37;;
7845;SDS011;3968;51.424;6.788;2023-05-02T10:33:51;8.60;;;3.20;;
7845;SDS011;3968;51.424;6.788;2023-05-02T10:36:21;6.93;;;3.00;;
7845;SDS011;3968;51.424;6.788;2023-05-02T10:38:47;10.40;;;3.10;;
7845;SDS011;3968;51.424;6.788;2023-05-02T10:41:15;14.50;;;3.67;;
7845;SDS011;3968;51.424;6.788;2023-05-02T10:43:44;6.30;;;3.03;;
7845;SDS011;3968;51.424;6.788;2023-05-02T10:46:30;7.60;;;3.93;;
7845;SDS011;3968;51.424;6.788;2023-05-02T10:49:00;15.00;;;3.70;;
7845;SDS011;3968;51.424;6.788;2023-05-02T10:51:27;8.90;;;3.20;;
7845;SDS011;3968;51.424;6.788;2023-05-02T10:53:53;9.67;;;2.93;;
7845;SDS011;3968;51.424;6.788;2023-05-02T10:56:21;7.60;;;2.83;;
7845;SDS011;3968;51.424;6.788;2023-05-02T10:58:53;9.77;;;2.97;;
7845;SDS011;3968;51.424;6.788;2023-05-02T11:01:36;9.10;;;3.30;;
7845;SDS011;3968;51.424;6.788;2023-05-02T11:06:30;5.93;;;3.13;;
7845;SDS011;3968;51.424;6.788;2023-05-02T11:11:45;7.80;;;3.10;;
7845;SDS011;3968;51.424;6.788;2023-05-02T11:14:57;11.80;;;4.00;;
7845;SDS011;3968;51.424;6.788;2023-05-02T11:19:24;5.90;;;2.83;;
7845;SDS011;3968;51.424;6.788;2023-05-02T11:21:50;10.20;;;4.03;;
7845;SDS011;3968;51.424;6.788;2023-05-02T11:29:51;7.70;;;3.07;;
7845;SDS011;3968;51.424;6.788;2023-05-02T11:32:17;4.67;;;2.53;;
7845;SDS011;3968;51.424;6.788;2023-05-02T11:34:43;6.37;;;3.37;;
7845;SDS011;3968;51.424;6.788;2023-05-02T11:37:10;4.97;;;3.00;;
7845;SDS011;3968;51.424;6.788;2023-05-02T11:39:37;6.37;;;3.40;;
7845;SDS011;3968;51.424;6.788;2023-05-02T11:42:03;10.67;;;3.10;;
7845;SDS011;3968;51.424;6.788;2023-05-02T11:44:29;10.40;;;3.90;;
7845;SDS011;3968;51.424;6.788;2023-05-02T11:46:55;8.77;;;4.43;;
7845;SDS011;3968;51.424;6.788;2023-05-02T11:49:21;14.33;;;4.37;;
7845;SDS011;3968;51.424;6.788;2023-05-02T11:51:47;9.83;;;4.07;;
7845;SDS011;3968;51.424;6.788;2023-05-02T11:54:20;12.13;;;4.13;;
7845;SDS011;3968;51.424;6.788;2023-05-02T11:56:46;6.43;;;3.47;;
7845;SDS011;3968;51.424;6.788;2023-05-02T11:59:13;11.40;;;3.87;;
7845;SDS011;3968;51.424;6.788;2023-05-02T12:01:48;8.30;;;3.50;;
7845;SDS011;3968;51.424;6.788;2023-05-02T12:04:14;9.20;;;5.30;;
7845;SDS011;3968;51.424;6.788;2023-05-02T12:06:57;10.87;;;4.53;;
7845;SDS011;3968;51.424;6.788;2023-05-02T12:09:23;7.23;;;3.87;;
7845;SDS011;3968;51.424;6.788;2023-05-02T12:11:52;10.67;;;3.93;;
7845;SDS011;3968;51.424;6.788;2023-05-02T12:14:31;8.07;;;3.43;;
7845;SDS011;3968;51.424;6.788;2023-05-02T12:16:57;4.17;;;2.60;;
7845;SDS011;3968;51.424;6.788;2023-05-02T12:19:24;4.87;;;2.30;;
7845;SDS011;3968;51.424;6.788;2023-05-02T12:21:50;7.37;;;2.67;;
7845;SDS011;3968;51.424;6.788;2023-05-02T12:24:16;5.73;;;2.60;;
7845;SDS011;3968;51.424;6.788;2023-05-02T12:26:43;4.97;;;3.00;;
7845;SDS011;3968;51.424;6.788;2023-05-02T12:29:09;6.43;;;2.67;;
7845;SDS011;3968;51.424;6.788;2023-05-02T12:31:35;5.90;;;2.97;;
7845;SDS011;3968;51.424;6.788;2023-05-02T12:34:01;6.47;;;3.13;;
7845;SDS011;3968;51.424;6.788;2023-05-02T12:36:27;7.20;;;2.60;;
7845;SDS011;3968;51.424;6.788;2023-05-02T12:38:54;5.57;;;2.87;;
7845;SDS011;3968;51.424;6.788;2023-05-02T12:41:32;5.20;;;2.63;;
7845;SDS011;3968;51.424;6.788;2023-05-02T12:43:58;5.33;;;2.77;;
7845;SDS011;3968;51.424;6.788;2023-05-02T12:46:25;4.87;;;2.80;;
7845;SDS011;3968;51.424;6.788;2023-05-02T12:49:07;7.03;;;2.73;;
7845;SDS011;3968;51.424;6.788;2023-05-02T12:51:35;3.93;;;2.73;;
7845;SDS011;3968;51.424;6.788;2023-05-02T12:54:02;6.70;;;3.20;;
7845;SDS011;3968;51.424;6.788;2023-05-02T12:56:28;6.53;;;2.97;;
7845;SDS011;3968;51.424;6.788;2023-05-02T12:58:56;11.07;;;4.10;;
7845;SDS011;3968;51.424;6.788;2023-05-02T13:01:25;11.37;;;3.60;;
7845;SDS011;3968;51.424;6.788;2023-05-02T13:03:52;7.33;;;3.80;;
7845;SDS011;3968;51.424;6.788;2023-05-02T13:06:18;5.07;;;3.17;;
7845;SDS011;3968;51.424;6.788;2023-05-02T13:08:44;9.20;;;3.57;;
7845;SDS011;3968;51.424;6.788;2023-05-02T13:11:10;5.10;;;3.07;;
7845;SDS011;3968;51.424;6.788;2023-05-02T13:13:38;10.13;;;3.30;;
7845;SDS011;3968;51.424;6.788;2023-05-02T13:16:04;7.90;;;3.53;;
7845;SDS011;3968;51.424;6.788;2023-05-02T13:18:30;7.53;;;4.07;;
7845;SDS011;3968;51.424;6.788;2023-05-02T13:20:56;7.17;;;3.87;;
7845;SDS011;3968;51.424;6.788;2023-05-02T13:23:22;6.30;;;3.93;;
7845;SDS011;3968;51.424;6.788;2023-05-02T13:25:48;7.73;;;4.07;;
7845;SDS011;3968;51.424;6.788;2023-05-02T13:28:14;8.63;;;4.20;;
7845;SDS011;3968;51.424;6.788;2023-05-02T13:30:40;7.60;;;3.67;;
7845;SDS011;3968;51.424;6.788;2023-05-02T13:33:06;11.30;;;3.50;;
7845;SDS011;3968;51.424;6.788;2023-05-02T13:35:32;7.13;;;3.60;;
7845;SDS011;3968;51.424;6.788;2023-05-02T13:37:58;5.70;;;3.50;;
7845;SDS011;3968;51.424;6.788;2023-05-02T13:40:24;7.33;;;3.70;;
7845;SDS011;3968;51.424;6.788;2023-05-02T13:42:50;5.87;;;3.27;;
7845;SDS011;3968;51.424;6.788;2023-05-02T13:45:17;9.80;;;3.97;;
7845;SDS011;3968;51.424;6.788;2023-05-02T13:47:43;5.72;;;3.53;;
7845;SDS011;3968;51.424;6.788;2023-05-02T13:50:09;10.90;;;4.47;;
7845;SDS011;3968;51.424;6.788;2023-05-02T13:52:36;8.07;;;3.73;;
7845;SDS011;3968;51.424;6.788;2023-05-02T13:55:02;8.80;;;3.42;;
7845;SDS011;3968;51.424;6.788;2023-05-02T13:57:28;5.17;;;3.50;;
7845;SDS011;3968;51.424;6.788;2023-05-02T13:59:54;6.63;;;3.33;;
7845;SDS011;3968;51.424;6.788;2023-05-02T14:02:20;5.82;;;3.17;;
7845;SDS011;3968;51.424;6.788;2023-05-02T14:04:46;8.70;;;4.17;;
7845;SDS011;3968;51.424;6.788;2023-05-02T14:07:12;5.87;;;3.93;;
7845;SDS011;3968;51.424;6.788;2023-05-02T14:09:38;11.38;;;4.60;;
7845;SDS011;3968;51.424;6.788;2023-05-02T14:12:05;11.10;;;4.47;;
7845;SDS011;3968;51.424;6.788;2023-05-02T14:14:31;111.63;;;83.93;;
7845;SDS011;3968;51.424;6.788;2023-05-02T14:16:57;153.95;;;94.93;;
7845;SDS011;3968;51.424;6.788;2023-05-02T14:19:23;69.30;;;37.67;;
7845;SDS011;3968;51.424;6.788;2023-05-02T14:21:49;38.22;;;24.00;;
7845;SDS011;3968;51.424;6.788;2023-05-02T14:24:15;10.43;;;5.23;;
7845;SDS011;3968;51.424;6.788;2023-05-02T14:26:42;8.90;;;3.90;;
7845;SDS011;3968;51.424;6.788;2023-05-02T14:29:08;7.78;;;4.07;;
7845;SDS011;3968;51.424;6.788;2023-05-02T14:31:34;7.05;;;3.85;;
7845;SDS011;3968;51.424;6.788;2023-05-02T14:34:00;11.83;;;4.43;;
7845;SDS011;3968;51.424;6.788;2023-05-02T14:36:26;10.47;;;3.53;;
7845;SDS011;3968;51.424;6.788;2023-05-02T14:38:52;8.53;;;3.93;;
7845;SDS011;3968;51.424;6.788;2023-05-02T14:41:18;6.97;;;4.20;;
7845;SDS011;3968;51.424;6.788;2023-05-02T14:43:45;9.80;;;3.90;;
7845;SDS011;3968;51.424;6.788;2023-05-02T14:46:11;62.70;;;42.53;;
7845;SDS011;3968;51.424;6.788;2023-05-02T14:48:37;207.60;;;131.43;;
7845;SDS011;3968;51.424;6.788;2023-05-02T14:51:04;21.92;;;10.95;;
7845;SDS011;3968;51.424;6.788;2023-05-02T14:53:30;5.85;;;3.28;;
7845;SDS011;3968;51.424;6.788;2023-05-02T14:55:56;7.47;;;3.60;;
7845;SDS011;3968;51.424;6.788;2023-05-02T14:58:22;6.55;;;3.22;;
7845;SDS011;3968;51.424;6.788;2023-05-02T15:00:48;9.17;;;3.83;;
7845;SDS011;3968;51.424;6.788;2023-05-02T15:03:14;10.23;;;3.65;;
7845;SDS011;3968;51.424;6.788;2023-05-02T15:05:40;7.85;;;4.30;;
7845;SDS011;3968;51.424;6.788;2023-05-02T15:08:06;8.70;;;3.77;;
7845;SDS011;3968;51.424;6.788;2023-05-02T15:10:36;11.43;;;4.53;;
7845;SDS011;3968;51.424;6.788;2023-05-02T15:13:02;9.73;;;4.93;;
7845;SDS011;3968;51.424;6.788;2023-05-02T15:15:28;8.63;;;4.13;;
7845;SDS011;3968;51.424;6.788;2023-05-02T15:17:54;8.10;;;3.93;;
7845;SDS011;3968;51.424;6.788;2023-05-02T15:20:20;9.93;;;4.63;;
7845;SDS011;3968;51.424;6.788;2023-05-02T15:22:46;29.37;;;15.07;;
7845;SDS011;3968;51.424;6.788;2023-05-02T15:25:13;153.43;;;99.83;;
7845;SDS011;3968;51.424;6.788;2023-05-02T15:27:39;94.77;;;61.47;;
7845;SDS011;3968;51.424;6.788;2023-05-02T15:30:06;102.88;;;64.95;;
7845;SDS011;3968;51.424;6.788;2023-05-02T15:32:32;17.10;;;6.05;;
7845;SDS011;3968;51.424;6.788;2023-05-02T15:34:58;8.60;;;4.25;;
7845;SDS011;3968;51.424;6.788;2023-05-02T15:37:24;13.02;;;5.30;;
7845;SDS011;3968;51.424;6.788;2023-05-02T15:39:50;10.20;;;4.73;;
7845;SDS011;3968;51.424;6.788;2023-05-02T15:42:16;11.13;;;4.18;;